Aérodrome :
LOGIN :

S'inscrire | Disclaimer

   EN    FR    IT 

 










Légende :    VFR   VFR Marginal   IFR   IFR Intensif   IFR Très Intensif
Visi : 
Plafond : 
>= 8 km
>= 3000ft
5 à 8 km
1000 à 3000 ft
1500m à 5 km
500 à 1000 ft
800 à 1500m
200 à 500 ft
< 800m
< 200 ft
Symboles :   Orages  Brouillard  Fortes neiges  Fortes précipitations  Vent > 20 kt
SIGMETs :   Divers  Orages  Givrage  Turbulence  Onde Orograph.  Cendres Volcan.







- Altitude de l'aérodrome : 7 ft
- Code IATA : POW


LJPZ - Portoroz

DERNIER METAR :
  • 221400Z 29006KT 9999 FEW060 SCT250 30/16 Q1019

METARs EXPIRÉS :
  • 221330Z 34004KT 280V040 9999 FEW060 SCT250 30/16 Q1019
  • 221300Z 36005KT 320V030 CAVOK 29/17 Q1019
  • 221230Z 36006KT 330V030 CAVOK 29/16 Q1019
  • 221200Z 35003KT 310V020 CAVOK 29/16 Q1019
  • 221130Z 29003KT 250V330 CAVOK 28/16 Q1019

TAF TAF LJPZ
Valide du 22 à 12h jusqu'au 22 à 21h UTC


221100Z 2212/2221 08005KT 9999 FEW055 SCT120
PROB30
TEMPO 2212/2214 -SHRA SCT045TCU BKN100
Pas de NOTAMs connus pour ce terrain.



MET'MAP, la Météo Aéronautique d'un coup d'oeil ! - Copyright ORBIFLY Décembre 2007 - Disclaimer

ORBIFLY MET'MAP TEAM :

Programmation & Développement : Alexandra Zaïnal
Conception & Développement : Baudouin d'Aumeries
Co-Programmation & Développement : Marc-Olivier Méhu
Soutien technique & logistique : Manuel Goepfert

Contact : metmap@orbifly.com




SOURCES & CREDITS :

   NOAA